createdAt,value
2022-10-17T00:00:28.610Z,3.28
2022-10-17T00:02:56.136Z,2.90
2022-10-17T00:05:23.642Z,3.28
2022-10-17T00:07:50.108Z,3.20
2022-10-17T00:10:20.164Z,3.72
2022-10-17T00:12:48.247Z,3.25
2022-10-17T00:15:18.287Z,3.75
2022-10-17T00:17:45.039Z,3.50
2022-10-17T00:20:13.521Z,3.50
2022-10-17T00:22:40.153Z,3.85
2022-10-17T00:25:07.062Z,3.63
2022-10-17T00:27:38.114Z,3.97
2022-10-17T00:30:06.447Z,3.25
2022-10-17T00:32:32.927Z,3.58
2022-10-17T00:34:59.443Z,4.30
2022-10-17T00:37:25.899Z,3.97
2022-10-17T00:39:52.434Z,4.18
2022-10-17T00:42:19.052Z,4.25
2022-10-17T00:44:47.493Z,3.97
2022-10-17T00:47:17.740Z,4.10
2022-10-17T00:49:44.403Z,4.10
2022-10-17T00:52:25.312Z,4.30
2022-10-17T00:54:55.063Z,4.15
2022-10-17T00:57:22.028Z,4.15
2022-10-17T00:59:51.735Z,4.07
2022-10-17T01:02:21.022Z,4.15
2022-10-17T01:04:49.303Z,4.35
2022-10-17T01:07:16.031Z,4.40
2022-10-17T01:09:43.273Z,4.35
2022-10-17T01:12:15.859Z,5.25
2022-10-17T01:15:10.167Z,4.60
2022-10-17T01:17:45.553Z,4.95
2022-10-17T01:20:24.051Z,3.60
2022-10-17T01:23:13.841Z,4.65
2022-10-17T01:25:58.589Z,4.88
2022-10-17T01:28:54.256Z,4.50
2022-10-17T01:31:23.043Z,4.47
2022-10-17T01:34:07.748Z,4.53
2022-10-17T01:36:38.299Z,4.30
2022-10-17T01:39:15.455Z,3.88
2022-10-17T01:42:19.511Z,3.45
2022-10-17T01:44:59.294Z,4.50
2022-10-17T01:47:28.993Z,4.00
2022-10-17T01:49:59.381Z,3.83
2022-10-17T01:52:30.188Z,4.65
2022-10-17T01:55:27.592Z,4.38
2022-10-17T01:57:57.677Z,4.25
2022-10-17T02:00:26.198Z,4.28
2022-10-17T02:02:57.037Z,4.65
2022-10-17T02:05:26.822Z,4.68
2022-10-17T02:07:53.282Z,5.40
2022-10-17T02:10:36.693Z,4.32
2022-10-17T02:13:27.632Z,4.25
2022-10-17T02:16:09.301Z,4.40
2022-10-17T02:18:53.040Z,4.90
2022-10-17T02:21:39.636Z,5.30
2022-10-17T02:24:25.689Z,4.75
2022-10-17T02:27:08.170Z,4.75
2022-10-17T02:29:40.443Z,4.38
2022-10-17T02:32:09.062Z,4.70
2022-10-17T02:34:43.245Z,4.70
2022-10-17T02:37:11.035Z,4.10
2022-10-17T02:39:38.234Z,5.10
2022-10-17T02:42:06.544Z,4.68
2022-10-17T02:44:33.835Z,4.53
2022-10-17T02:47:26.976Z,3.97
2022-10-17T02:49:56.474Z,3.15
2022-10-17T02:52:35.258Z,4.68
2022-10-17T02:55:16.473Z,4.35
2022-10-17T02:57:45.637Z,5.00
2022-10-17T03:00:22.770Z,5.05
2022-10-17T03:02:51.205Z,4.90
2022-10-17T03:05:26.842Z,4.57
2022-10-17T03:07:54.128Z,4.45
2022-10-17T03:10:20.866Z,4.70
2022-10-17T03:12:53.542Z,4.43
2022-10-17T03:15:20.064Z,5.03
2022-10-17T03:17:46.660Z,4.28
2022-10-17T03:20:13.160Z,4.25
2022-10-17T03:22:39.681Z,4.55
2022-10-17T03:25:06.510Z,4.45
2022-10-17T03:27:33.243Z,5.15
2022-10-17T03:29:59.783Z,4.68
2022-10-17T03:32:26.331Z,5.05
2022-10-17T03:34:52.810Z,4.10
2022-10-17T03:37:19.255Z,4.70
2022-10-17T03:39:45.724Z,5.35
2022-10-17T03:42:12.184Z,5.03
2022-10-17T03:44:38.635Z,5.15
2022-10-17T03:47:06.491Z,4.82
2022-10-17T03:49:33.714Z,4.50
2022-10-17T03:52:00.178Z,4.35
2022-10-17T03:54:26.810Z,4.20
2022-10-17T03:56:53.361Z,4.00
2022-10-17T03:59:19.827Z,4.15
2022-10-17T04:01:46.476Z,3.92
2022-10-17T04:04:13.102Z,4.38
2022-10-17T04:06:39.552Z,4.28
2022-10-17T04:09:06.912Z,4.30
2022-10-17T04:11:33.994Z,4.40
2022-10-17T04:14:00.457Z,5.13
2022-10-17T04:16:27.020Z,4.40
2022-10-17T04:18:55.368Z,4.43
2022-10-17T04:21:23.002Z,4.18
2022-10-17T04:23:53.175Z,3.80
2022-10-17T04:26:19.911Z,4.30
2022-10-17T04:28:46.413Z,3.85
2022-10-17T04:31:14.367Z,3.80
2022-10-17T04:33:41.386Z,4.10
2022-10-17T04:36:11.972Z,4.35
2022-10-17T04:38:38.492Z,3.50
2022-10-17T04:41:07.617Z,3.92
2022-10-17T04:43:36.514Z,4.22
2022-10-17T04:46:05.484Z,3.88
2022-10-17T04:48:31.975Z,4.30
2022-10-17T04:51:04.536Z,3.45
2022-10-17T04:53:33.560Z,3.78
2022-10-17T04:56:00.031Z,4.00
2022-10-17T04:58:28.160Z,3.50
2022-10-17T05:00:54.726Z,3.90
2022-10-17T05:03:21.253Z,3.10
2022-10-17T05:05:48.187Z,3.53
2022-10-17T05:08:14.640Z,3.97
2022-10-17T05:10:43.260Z,3.33
2022-10-17T05:13:10.372Z,3.97
2022-10-17T05:15:37.856Z,3.45
2022-10-17T05:18:05.619Z,3.95
2022-10-17T05:20:32.719Z,3.70
2022-10-17T05:22:59.798Z,4.13
2022-10-17T05:25:26.402Z,4.25
2022-10-17T05:27:53.429Z,3.17
2022-10-17T05:30:19.897Z,3.45
2022-10-17T05:32:46.356Z,3.80
2022-10-17T05:35:12.815Z,3.10
2022-10-17T05:37:39.295Z,3.22
2022-10-17T05:40:06.208Z,3.33
2022-10-17T05:42:33.143Z,3.13
2022-10-17T05:44:59.850Z,3.58
2022-10-17T05:47:26.407Z,3.40
2022-10-17T05:49:53.121Z,3.70
2022-10-17T05:52:19.596Z,3.30
2022-10-17T05:54:46.082Z,3.40
2022-10-17T05:57:12.558Z,3.35
2022-10-17T05:59:39.066Z,3.10
2022-10-17T06:02:05.604Z,3.33
2022-10-17T06:04:32.432Z,2.75
2022-10-17T06:06:58.913Z,3.08
2022-10-17T06:09:25.562Z,2.55
2022-10-17T06:11:52.078Z,2.75
2022-10-17T06:14:18.537Z,2.90
2022-10-17T06:16:45.035Z,2.97
2022-10-17T06:19:11.601Z,2.55
2022-10-17T06:21:38.866Z,2.80
2022-10-17T06:24:05.323Z,2.50
2022-10-17T06:26:31.785Z,2.80
2022-10-17T06:28:58.272Z,2.78
2022-10-17T06:31:24.802Z,2.58
2022-10-17T06:33:51.255Z,2.40
2022-10-17T06:36:17.735Z,2.30
2022-10-17T06:38:44.205Z,2.13
2022-10-17T06:41:15.108Z,2.83
2022-10-17T06:43:48.829Z,2.10
2022-10-17T06:46:16.952Z,2.38
2022-10-17T06:48:43.441Z,2.10
2022-10-17T06:51:11.363Z,2.63
2022-10-17T06:53:39.377Z,2.42
2022-10-17T06:56:07.106Z,2.50
2022-10-17T06:58:35.622Z,2.45
2022-10-17T07:01:04.176Z,2.10
2022-10-17T07:03:30.690Z,2.13
2022-10-17T07:05:57.405Z,2.70
2022-10-17T07:08:24.439Z,2.33
2022-10-17T07:10:51.261Z,2.55
2022-10-17T07:13:18.707Z,2.33
2022-10-17T07:15:45.698Z,2.20
2022-10-17T07:18:12.322Z,2.15
2022-10-17T07:20:38.864Z,2.47
2022-10-17T07:23:05.318Z,2.40
2022-10-17T07:25:33.270Z,2.65
2022-10-17T07:28:02.175Z,2.50
2022-10-17T07:30:28.746Z,2.17
2022-10-17T07:32:55.257Z,2.70
2022-10-17T07:35:21.948Z,2.60
2022-10-17T07:37:48.564Z,2.30
2022-10-17T07:40:15.067Z,2.75
2022-10-17T07:42:41.565Z,2.47
2022-10-17T07:45:08.525Z,2.72
2022-10-17T07:47:35.799Z,2.47
2022-10-17T07:50:03.805Z,2.60
2022-10-17T07:52:30.616Z,2.95
2022-10-17T07:54:57.368Z,3.13
2022-10-17T07:57:23.991Z,2.80
2022-10-17T07:59:51.293Z,3.20
2022-10-17T08:02:23.568Z,2.70
2022-10-17T08:04:50.528Z,2.55
2022-10-17T08:07:23.262Z,2.80
2022-10-17T08:09:50.795Z,2.55
2022-10-17T08:12:17.713Z,2.28
2022-10-17T08:14:44.333Z,2.92
2022-10-17T08:17:10.797Z,2.75
2022-10-17T08:19:41.244Z,2.67
2022-10-17T08:22:08.331Z,2.70
2022-10-17T08:24:35.274Z,3.80
2022-10-17T08:27:01.897Z,2.70
2022-10-17T08:29:28.363Z,3.25
2022-10-17T08:32:00.842Z,2.60
2022-10-17T08:34:27.526Z,3.07
2022-10-17T08:36:54.105Z,3.17
2022-10-17T08:39:20.562Z,3.30
2022-10-17T08:41:56.220Z,3.15
2022-10-17T08:45:14.660Z,3.13
2022-10-17T08:47:44.661Z,3.20
2022-10-17T08:50:35.569Z,2.95
2022-10-17T08:53:34.710Z,3.30
2022-10-17T08:56:11.933Z,3.33
2022-10-17T08:58:41.692Z,4.13
2022-10-17T09:01:37.517Z,3.72
2022-10-17T09:04:38.193Z,3.10
2022-10-17T09:07:32.084Z,3.35
2022-10-17T09:10:29.981Z,3.53
2022-10-17T09:13:08.403Z,3.67
2022-10-17T09:16:01.338Z,3.42
2022-10-17T09:18:33.970Z,3.58
2022-10-17T09:21:39.334Z,2.97
2022-10-17T09:24:20.941Z,3.65
2022-10-17T09:26:47.400Z,3.92
2022-10-17T09:29:23.315Z,3.55
2022-10-17T09:32:02.273Z,3.97
2022-10-17T09:34:31.784Z,4.07
2022-10-17T09:37:00.462Z,3.97
2022-10-17T09:39:29.169Z,4.20
2022-10-17T09:41:57.434Z,5.25
2022-10-17T09:44:32.950Z,3.90
2022-10-17T09:47:20.552Z,3.80
2022-10-17T09:49:48.341Z,3.65
2022-10-17T09:52:18.826Z,3.67
2022-10-17T09:54:50.879Z,4.35
2022-10-17T09:57:18.887Z,3.80
2022-10-17T09:59:49.343Z,3.75
2022-10-17T10:02:15.755Z,3.90
2022-10-17T10:05:06.067Z,4.15
2022-10-17T10:07:36.562Z,4.50
2022-10-17T10:10:05.950Z,4.30
2022-10-17T10:12:38.025Z,4.28
2022-10-17T10:15:33.322Z,4.18
2022-10-17T10:18:00.014Z,4.78
2022-10-17T10:20:32.658Z,3.90
2022-10-17T10:23:14.950Z,3.75
2022-10-17T10:25:56.302Z,4.20
2022-10-17T10:28:34.146Z,4.20
2022-10-17T10:31:04.703Z,4.32
2022-10-17T10:33:32.437Z,5.00
2022-10-17T10:36:01.839Z,4.90
2022-10-17T10:38:29.423Z,5.30
2022-10-17T10:41:01.884Z,5.28
2022-10-17T10:43:33.459Z,5.28
2022-10-17T10:46:00.619Z,5.60
2022-10-17T10:48:37.442Z,4.82
2022-10-17T10:51:14.634Z,4.93
2022-10-17T10:53:49.865Z,5.70
2022-10-17T10:56:26.063Z,6.10
2022-10-17T10:59:08.993Z,6.30
2022-10-17T11:01:54.736Z,4.65
2022-10-17T11:04:45.096Z,5.80
2022-10-17T11:07:25.820Z,5.68
2022-10-17T11:09:59.915Z,5.90
2022-10-17T11:12:34.383Z,6.18
2022-10-17T11:15:07.890Z,6.40
2022-10-17T11:17:44.261Z,7.13
2022-10-17T11:20:44.086Z,7.10
2022-10-17T11:23:21.674Z,6.80
2022-10-17T11:25:50.968Z,7.70
2022-10-17T11:28:20.246Z,7.68
2022-10-17T11:31:04.639Z,7.43
2022-10-17T11:33:56.952Z,7.38
2022-10-17T11:36:29.643Z,7.80
2022-10-17T11:39:05.696Z,8.00
2022-10-17T11:41:45.446Z,8.32
2022-10-17T11:44:36.417Z,7.15
2022-10-17T11:47:30.052Z,7.93
2022-10-17T11:53:13.248Z,8.20
2022-10-17T11:55:41.307Z,8.52
2022-10-17T11:58:43.288Z,8.43
2022-10-17T12:01:33.393Z,8.45
2022-10-17T12:04:05.884Z,8.48
2022-10-17T12:06:54.185Z,8.90
2022-10-17T12:09:41.871Z,9.63
2022-10-17T12:12:09.023Z,10.35
2022-10-17T12:14:47.758Z,9.52
2022-10-17T12:17:39.118Z,10.30
2022-10-17T12:20:21.406Z,10.57
2022-10-17T12:22:48.903Z,10.10
2022-10-17T12:25:30.677Z,11.63
2022-10-17T12:28:13.305Z,10.80
2022-10-17T12:30:58.775Z,11.00
2022-10-17T12:33:30.887Z,11.32
2022-10-17T12:36:18.953Z,11.35
2022-10-17T12:38:50.421Z,12.23
2022-10-17T12:41:17.700Z,11.57
2022-10-17T12:43:52.344Z,13.00
2022-10-17T12:46:42.040Z,12.20
2022-10-17T12:49:23.988Z,12.38
2022-10-17T12:52:08.695Z,12.10
2022-10-17T12:54:59.896Z,12.65
2022-10-17T12:57:33.424Z,12.52
2022-10-17T13:00:15.932Z,13.18
2022-10-17T13:02:42.552Z,13.32
2022-10-17T13:05:15.887Z,12.60
2022-10-17T13:07:44.388Z,12.93
2022-10-17T13:10:23.112Z,13.60
2022-10-17T13:12:50.570Z,14.07
2022-10-17T13:15:19.314Z,13.95
2022-10-17T13:17:45.919Z,14.75
2022-10-17T13:20:28.869Z,14.40
2022-10-17T13:22:58.312Z,13.95
2022-10-17T13:25:26.196Z,13.65
2022-10-17T13:28:03.947Z,14.07
2022-10-17T13:30:33.219Z,13.23
2022-10-17T13:33:00.815Z,14.18
2022-10-17T13:35:58.691Z,13.68
2022-10-17T13:38:27.513Z,14.18
2022-10-17T13:41:01.758Z,14.48
2022-10-17T13:43:38.678Z,13.38
2022-10-17T13:46:25.351Z,14.75
2022-10-17T13:48:52.607Z,12.85
2022-10-17T13:51:19.448Z,14.05
2022-10-17T13:53:45.933Z,13.65
2022-10-17T13:56:28.864Z,12.70
2022-10-17T13:59:17.332Z,13.43
2022-10-17T14:01:43.868Z,13.48
2022-10-17T14:04:19.583Z,11.52
2022-10-17T14:06:49.635Z,11.73
2022-10-17T14:09:18.535Z,12.07
2022-10-17T14:11:45.307Z,10.80
2022-10-17T14:14:20.207Z,10.35
2022-10-17T14:16:51.712Z,10.60
2022-10-17T14:19:31.879Z,9.75
2022-10-17T14:22:27.293Z,8.18
2022-10-17T14:24:57.124Z,9.68
2022-10-17T14:27:42.410Z,9.98
2022-10-17T14:30:51.625Z,7.90
2022-10-17T14:33:24.516Z,9.18
2022-10-17T14:35:56.478Z,10.43
2022-10-17T14:38:23.612Z,10.38
2022-10-17T14:41:04.834Z,12.00
2022-10-17T14:43:43.196Z,10.50
2022-10-17T14:46:14.914Z,11.02
2022-10-17T14:48:41.983Z,9.82
2022-10-17T14:51:12.578Z,10.45
2022-10-17T14:53:39.591Z,11.18
2022-10-17T14:56:26.246Z,11.27
2022-10-17T14:58:52.863Z,9.48
2022-10-17T15:01:19.608Z,10.13
2022-10-17T15:03:47.627Z,9.45
2022-10-17T15:06:23.586Z,9.25
2022-10-17T15:08:50.086Z,9.02
2022-10-17T15:11:16.532Z,8.82
2022-10-17T15:13:45.685Z,9.07
2022-10-17T15:16:19.022Z,8.90
2022-10-17T15:18:45.535Z,8.68
2022-10-17T15:21:33.644Z,8.95
2022-10-17T15:24:01.711Z,9.38
2022-10-17T15:26:31.753Z,8.43
2022-10-17T15:28:58.300Z,8.05
2022-10-17T15:31:25.912Z,7.88
2022-10-17T15:33:52.564Z,8.73
2022-10-17T15:36:37.751Z,9.05
2022-10-17T15:39:04.306Z,7.43
2022-10-17T15:41:32.210Z,7.75
2022-10-17T15:43:59.368Z,8.55
2022-10-17T15:46:29.309Z,8.27
2022-10-17T15:48:56.917Z,8.80
2022-10-17T15:51:23.903Z,9.43
2022-10-17T15:53:50.396Z,8.43
2022-10-17T15:56:21.265Z,8.73
2022-10-17T15:58:47.831Z,10.35
2022-10-17T16:01:21.610Z,9.82
2022-10-17T16:03:50.187Z,10.52
2022-10-17T16:06:18.571Z,10.02
2022-10-17T16:08:48.697Z,10.50
2022-10-17T16:11:26.332Z,10.25
2022-10-17T16:13:54.084Z,9.30
2022-10-17T16:16:22.588Z,9.52
2022-10-17T16:18:49.232Z,10.70
2022-10-17T16:21:16.608Z,10.77
2022-10-17T16:23:43.277Z,9.93
2022-10-17T16:26:09.917Z,10.55
2022-10-17T16:28:36.473Z,10.18
2022-10-17T16:31:02.958Z,9.93
2022-10-17T16:33:31.259Z,10.05
2022-10-17T16:35:57.946Z,9.88
2022-10-17T16:38:24.417Z,10.70
2022-10-17T16:40:51.156Z,10.13
2022-10-17T16:43:17.807Z,9.77
2022-10-17T16:45:44.355Z,10.40
2022-10-17T16:48:11.107Z,10.30
2022-10-17T16:50:39.580Z,9.27
2022-10-17T16:53:06.043Z,10.10
2022-10-17T16:55:32.502Z,10.15
2022-10-17T16:57:59.916Z,9.75
2022-10-17T17:00:26.738Z,9.23
2022-10-17T17:02:53.267Z,9.23
2022-10-17T17:05:19.814Z,9.30
2022-10-17T17:07:47.931Z,8.88
2022-10-17T17:10:14.420Z,8.18
2022-10-17T17:12:40.884Z,8.23
2022-10-17T17:15:07.759Z,7.70
2022-10-17T17:17:49.590Z,8.27
2022-10-17T17:20:17.845Z,7.55
2022-10-17T17:22:44.297Z,7.07
2022-10-17T17:25:10.765Z,6.40
2022-10-17T17:27:44.861Z,6.45
2022-10-17T17:30:13.393Z,6.18
2022-10-17T17:32:40.315Z,6.35
2022-10-17T17:35:08.281Z,6.47
2022-10-17T17:37:35.011Z,5.95
2022-10-17T17:40:01.551Z,6.40
2022-10-17T17:42:28.186Z,5.40
2022-10-17T17:44:54.745Z,5.47
2022-10-17T17:47:21.279Z,5.38
2022-10-17T17:49:48.107Z,5.57
2022-10-17T17:52:14.650Z,5.57
2022-10-17T17:54:41.247Z,5.72
2022-10-17T17:57:07.730Z,5.60
2022-10-17T17:59:34.309Z,5.25
2022-10-17T18:02:03.604Z,5.72
2022-10-17T18:04:30.223Z,6.15
2022-10-17T18:06:56.756Z,6.00
2022-10-17T18:09:24.244Z,6.18
2022-10-17T18:11:53.164Z,6.20
2022-10-17T18:14:24.177Z,6.50
2022-10-17T18:16:53.920Z,5.82
2022-10-17T18:19:22.157Z,6.53
2022-10-17T18:21:48.758Z,6.53
2022-10-17T18:24:15.223Z,6.15
2022-10-17T18:26:41.682Z,6.68
2022-10-17T18:29:09.003Z,5.95
2022-10-17T18:31:36.025Z,5.90
2022-10-17T18:34:04.123Z,6.30
2022-10-17T18:36:31.454Z,6.85
2022-10-17T18:38:59.251Z,6.00
2022-10-17T18:41:27.425Z,6.32
2022-10-17T18:43:55.831Z,5.93
2022-10-17T18:46:28.421Z,5.95
2022-10-17T18:48:55.725Z,6.13
2022-10-17T18:51:24.756Z,6.53
2022-10-17T18:53:54.186Z,6.13
2022-10-17T18:56:22.236Z,6.28
2022-10-17T18:58:49.848Z,6.13
2022-10-17T19:01:19.120Z,6.82
2022-10-17T19:03:48.579Z,5.80
2022-10-17T19:06:17.246Z,5.95
2022-10-17T19:08:44.000Z,6.40
2022-10-17T19:11:13.178Z,6.20
2022-10-17T19:13:40.113Z,6.65
2022-10-17T19:16:20.708Z,7.00
2022-10-17T19:18:52.533Z,6.47
2022-10-17T19:21:21.845Z,6.10
2022-10-17T19:23:52.475Z,6.30
2022-10-17T19:26:19.700Z,6.55
2022-10-17T19:28:47.536Z,6.53
2022-10-17T19:31:16.990Z,6.78
2022-10-17T19:33:44.692Z,6.53
2022-10-17T19:36:11.693Z,6.57
2022-10-17T19:38:38.191Z,6.40
2022-10-17T19:41:08.501Z,6.60
2022-10-17T19:43:39.212Z,6.20
2022-10-17T19:46:08.718Z,7.07
2022-10-17T19:48:39.961Z,6.70
2022-10-17T19:51:12.102Z,7.93
2022-10-17T19:53:39.692Z,7.20
2022-10-17T19:56:07.054Z,6.72
2022-10-17T19:58:37.302Z,7.72
2022-10-17T20:01:05.578Z,7.70
2022-10-17T20:03:32.068Z,8.23
2022-10-17T20:05:58.524Z,8.70
2022-10-17T20:10:52.385Z,7.68
2022-10-17T20:13:18.849Z,9.32
2022-10-17T20:15:55.792Z,9.13
2022-10-17T20:18:22.257Z,10.82
2022-10-17T20:20:48.845Z,12.63
2022-10-17T20:23:15.370Z,11.98
2022-10-17T20:25:41.872Z,9.05
2022-10-17T20:28:08.555Z,9.13
2022-10-17T20:30:35.298Z,9.15
2022-10-17T20:33:01.787Z,8.90
2022-10-17T20:35:28.261Z,9.20
2022-10-17T20:37:54.775Z,9.65
2022-10-17T20:40:34.552Z,9.10
2022-10-17T20:43:02.284Z,9.15
2022-10-17T20:45:43.693Z,9.18
2022-10-17T20:48:15.712Z,10.35
2022-10-17T20:50:43.455Z,10.52
2022-10-17T20:53:35.425Z,11.30
2022-10-17T20:56:05.891Z,11.93
2022-10-17T20:58:33.006Z,9.60
2022-10-17T21:01:15.240Z,11.10
2022-10-17T21:03:45.476Z,10.90
2022-10-17T21:06:14.097Z,10.75
2022-10-17T21:08:40.557Z,10.85
2022-10-17T21:11:18.058Z,11.13
2022-10-17T21:13:45.098Z,10.65
2022-10-17T21:16:17.615Z,12.57
2022-10-17T21:18:44.335Z,11.00
2022-10-17T21:21:19.939Z,12.20
2022-10-17T21:23:48.272Z,11.95
2022-10-17T21:26:15.968Z,12.60
2022-10-17T21:28:43.843Z,12.75
2022-10-17T21:31:21.783Z,12.13
2022-10-17T21:33:57.352Z,13.98
2022-10-17T21:36:25.096Z,14.07
2022-10-17T21:38:54.359Z,12.57
2022-10-17T21:41:24.062Z,11.52
2022-10-17T21:44:00.274Z,13.10
2022-10-17T21:46:27.020Z,11.15
2022-10-17T21:48:54.390Z,10.75
2022-10-17T21:51:23.187Z,10.27
2022-10-17T21:53:52.415Z,10.57
2022-10-17T21:56:21.553Z,10.60
2022-10-17T21:58:49.115Z,10.00
2022-10-17T22:01:17.681Z,9.93
2022-10-17T22:03:48.972Z,9.20
2022-10-17T22:06:39.241Z,9.43
2022-10-17T22:09:06.627Z,9.68
2022-10-17T22:11:35.169Z,8.82
2022-10-17T22:14:05.109Z,8.82
2022-10-17T22:16:32.028Z,8.50
2022-10-17T22:19:06.165Z,9.02
2022-10-17T22:21:34.792Z,8.98
2022-10-17T22:24:03.703Z,9.50
2022-10-17T22:26:36.391Z,9.48
2022-10-17T22:29:04.639Z,8.50
2022-10-17T22:31:31.316Z,8.82
2022-10-17T22:33:58.276Z,9.20
2022-10-17T22:36:26.251Z,8.18
2022-10-17T22:38:53.741Z,9.05
2022-10-17T22:41:20.430Z,8.20
2022-10-17T22:43:47.226Z,8.85
2022-10-17T22:46:14.435Z,8.00
2022-10-17T22:48:41.145Z,7.70
2022-10-17T22:51:08.415Z,8.05
2022-10-17T22:53:35.871Z,8.23
2022-10-17T22:56:06.122Z,8.15
2022-10-17T22:58:34.060Z,7.82
2022-10-17T23:01:00.630Z,7.60
2022-10-17T23:03:28.375Z,7.35
2022-10-17T23:05:55.102Z,7.28
2022-10-17T23:08:21.587Z,6.57
2022-10-17T23:10:48.308Z,7.85
2022-10-17T23:13:15.145Z,6.38
2022-10-17T23:15:42.191Z,7.18
2022-10-17T23:18:10.561Z,6.03
2022-10-17T23:20:39.431Z,7.35
2022-10-17T23:23:06.486Z,6.65
2022-10-17T23:25:34.151Z,6.72
2022-10-17T23:28:00.944Z,6.28
2022-10-17T23:30:27.511Z,5.53
2022-10-17T23:32:54.474Z,6.35
2022-10-17T23:35:20.973Z,7.65
2022-10-17T23:37:47.619Z,7.20
2022-10-17T23:40:14.211Z,6.70
2022-10-17T23:42:41.835Z,5.75
2022-10-17T23:45:08.742Z,6.68
2022-10-17T23:47:35.275Z,6.43
2022-10-17T23:50:01.814Z,5.78
2022-10-17T23:52:28.647Z,5.60
2022-10-17T23:54:55.962Z,5.47
2022-10-17T23:57:22.649Z,5.53
2022-10-17T23:59:49.187Z,6.53
